Time;durP1;ratioP1;P1;durP2;ratioP2;P2;SDS_P1;SDS_P2;PMS_P1;PMS_P2;Temp;Humidity;BMP_temperature;BMP_pressure;BME280_temperature;BME280_humidity;BME280_pressure;Samples;Min_cycle;Max_cycle;Signal;HPM_P1;HPM_P2
2022/04/27 00:00:18;;;;;;;9.77;8.03;;;;;;;10.23;58.42;101862.41;5078110;28;20521;-70
2022/04/27 00:02:43;;;;;;;10.33;7.97;;;;;;;10.75;56.83;101847.38;5078528;28;20495;-70
2022/04/27 00:05:09;;;;;;;12.57;8.40;;;;;;;10.67;56.79;101852.38;5078112;28;20531;-71
2022/04/27 00:07:34;;;;;;;8.60;7.53;;;;;;;10.61;57.10;101850.47;5077303;28;20173;-69
2022/04/27 00:10:00;;;;;;;7.50;6.77;;;;;;;10.60;57.16;101856.53;5078232;28;20187;-71
2022/04/27 00:12:25;;;;;;;12.00;6.80;;;;;;;10.43;57.30;101850.88;5077798;28;20337;-70
2022/04/27 00:14:51;;;;;;;8.60;6.87;;;;;;;10.70;56.90;101855.09;5077969;28;20173;-71
2022/04/27 00:17:16;;;;;;;10.80;8.20;;;;;;;10.52;56.77;101857.16;5078201;28;20570;-70
2022/04/27 00:19:42;;;;;;;8.70;7.70;;;;;;;10.07;58.05;101856.75;5078027;28;20226;-70
2022/04/27 00:22:07;;;;;;;7.80;6.90;;;;;;;10.04;58.63;101861.88;5077899;28;20223;-70
2022/04/27 00:24:32;;;;;;;9.77;8.00;;;;;;;10.27;58.23;101864.28;5077762;28;20185;-70
2022/04/27 00:26:58;;;;;;;11.00;7.40;;;;;;;10.22;57.60;101858.03;5077669;28;20223;-69
2022/04/27 00:29:23;;;;;;;9.50;7.53;;;;;;;10.38;57.12;101856.78;5078167;28;20165;-71
2022/04/27 00:31:48;;;;;;;8.43;7.50;;;;;;;10.03;58.08;101857.47;5077778;28;20588;-71
2022/04/27 00:34:14;;;;;;;8.70;7.20;;;;;;;10.04;58.32;101861.88;5077921;28;20424;-71
2022/04/27 00:36:39;;;;;;;10.20;7.53;;;;;;;9.82;58.95;101859.44;5077700;28;20216;-71
2022/04/27 00:39:05;;;;;;;10.33;7.90;;;;;;;9.91;58.52;101864.94;5077866;28;20180;-71
2022/04/27 00:41:30;;;;;;;9.70;7.60;;;;;;;10.02;57.81;101863.53;5077478;28;20205;-70
2022/04/27 00:43:56;;;;;;;12.40;7.80;;;;;;;9.65;58.75;101857.19;5077391;28;20185;-70
2022/04/27 00:46:21;;;;;;;9.33;7.13;;;;;;;10.01;58.30;101859.19;5078777;28;20173;-69
2022/04/27 00:48:47;;;;;;;13.87;7.47;;;;;;;9.75;58.85;101860.97;5077814;28;20581;-70
2022/04/27 00:51:22;;;;;;;8.90;7.30;;;;;;;9.67;59.13;101854.63;5078028;28;20165;-71
2022/04/27 00:53:49;;;;;;;10.23;8.47;;;;;;;10.07;58.26;101854.13;5076968;28;20196;-70
2022/04/27 00:56:16;;;;;;;17.37;8.60;;;;;;;9.64;58.57;101860.63;5077675;28;20415;-69
2022/04/27 00:58:42;;;;;;;12.23;8.23;;;;;;;10.04;58.15;101858.34;5077535;28;20445;-70
2022/04/27 01:01:07;;;;;;;9.70;8.50;;;;;;;9.75;58.79;101868.78;5078904;28;20462;-69
2022/04/27 01:03:36;;;;;;;14.17;7.87;;;;;;;9.24;60.01;101868.03;5081243;28;20299;-70
2022/04/27 01:06:02;;;;;;;11.20;7.33;;;;;;;9.28;60.27;101871.59;5081403;28;20444;-69
2022/04/27 01:08:27;;;;;;;23.27;8.13;;;;;;;9.67;58.91;101862.44;5081133;28;20407;-69
2022/04/27 01:10:52;;;;;;;11.10;8.00;;;;;;;9.78;58.98;101866.25;5081340;28;20168;-71
2022/04/27 01:13:18;;;;;;;11.33;8.10;;;;;;;9.61;58.99;101864.03;5081215;28;20441;-70
2022/04/27 01:15:43;;;;;;;11.63;7.70;;;;;;;9.47;59.42;101878.34;5080506;28;20235;-70
2022/04/27 01:18:09;;;;;;;9.13;7.70;;;;;;;9.25;60.33;101875.03;5080716;28;20221;-69
2022/04/27 01:20:38;;;;;;;8.93;7.50;;;;;;;9.43;59.79;101879.94;5080493;28;20276;-69
2022/04/27 01:23:05;;;;;;;9.70;7.33;;;;;;;9.45;59.79;101877.38;5080880;28;20426;-70
2022/04/27 01:25:56;;;;;;;7.77;6.50;;;;;;;10.73;58.12;101877.72;5080538;28;20423;-65
2022/04/27 01:28:26;;;;;;;7.03;5.53;;;;;;;14.11;48.47;101860.16;5080559;28;20410;-65
2022/04/27 01:31:02;;;;;;;14.70;7.22;;;;;;;11.65;52.05;101873.06;5079978;28;20822;-70
2022/04/27 01:33:29;;;;;;;9.57;6.60;;;;;;;10.04;56.95;101877.50;5080625;28;20268;-69
2022/04/27 01:35:55;;;;;;;11.00;7.03;;;;;;;9.77;58.10;101873.19;5080674;28;20411;-69
2022/04/27 01:38:20;;;;;;;8.07;7.03;;;;;;;9.36;59.11;101882.28;5080475;28;20480;-69
2022/04/27 01:40:46;;;;;;;10.23;7.80;;;;;;;9.59;58.78;101883.03;5081043;28;20201;-69
2022/04/27 01:43:15;;;;;;;10.10;7.13;;;;;;;9.65;58.79;101888.44;5080542;28;20169;-69
2022/04/27 01:45:43;;;;;;;14.73;8.13;;;;;;;9.39;59.60;101890.19;5080696;28;20419;-70
2022/04/27 01:48:10;;;;;;;9.50;8.07;;;;;;;9.52;59.35;101891.47;5080478;28;20415;-69
2022/04/27 01:50:35;;;;;;;8.70;7.53;;;;;;;9.49;59.83;101897.47;5080604;28;20415;-69
2022/04/27 01:55:45;;;;;;;14.90;7.53;;;;;;;9.63;59.21;101900.50;5080394;28;20229;-70
2022/04/27 01:58:10;;;;;;;12.87;7.90;;;;;;;9.55;59.48;101897.69;5080198;28;20534;-70
2022/04/27 02:00:35;;;;;;;11.47;7.67;;;;;;;9.35;60.10;101894.44;5080064;28;20234;-70
2022/04/27 02:03:00;;;;;;;8.43;7.20;;;;;;;9.44;59.82;101897.34;5080061;28;20176;-70
2022/04/27 02:05:26;;;;;;;14.63;7.43;;;;;;;9.35;59.80;101899.63;5080636;28;20179;-71
2022/04/27 02:07:52;;;;;;;9.70;7.90;;;;;;;9.23;60.64;101905.28;5080031;28;20188;-69
2022/04/27 02:10:17;;;;;;;12.10;7.23;;;;;;;9.02;61.59;101912.38;5080033;28;20177;-70
2022/04/27 02:12:42;;;;;;;9.90;7.80;;;;;;;9.32;60.55;101903.84;5080068;28;20291;-68
2022/04/27 02:15:09;;;;;;;10.20;7.03;;;;;;;9.20;61.26;101909.50;5079010;28;20534;-68
2022/04/27 02:17:35;;;;;;;8.80;6.90;;;;;;;9.30;60.90;101908.13;5079698;28;20301;-68
2022/04/27 02:20:00;;;;;;;8.37;6.50;;;;;;;9.35;60.18;101920.44;5080599;28;20399;-69
2022/04/27 02:22:25;;;;;;;8.40;7.03;;;;;;;9.34;60.59;101912.59;5079466;28;20481;-69
2022/04/27 02:24:51;;;;;;;7.83;7.03;;;;;;;9.26;60.78;101914.94;5079873;28;20176;-68
2022/04/27 02:27:17;;;;;;;10.30;7.70;;;;;;;8.93;61.85;101925.94;5080263;28;20251;-69
2022/04/27 02:29:42;;;;;;;13.93;7.23;;;;;;;8.75;62.16;101926.16;5079695;28;20254;-69
2022/04/27 02:32:08;;;;;;;9.27;6.73;;;;;;;8.86;62.28;101917.03;5079550;28;20173;-69
2022/04/27 02:34:33;;;;;;;13.10;7.57;;;;;;;9.02;61.61;101926.25;5082417;28;20161;-68
2022/04/27 02:36:58;;;;;;;10.70;7.23;;;;;;;9.02;61.79;101930.56;5082566;28;20173;-68
2022/04/27 02:39:24;;;;;;;11.53;6.87;;;;;;;9.00;61.74;101933.13;5079840;28;20191;-70
2022/04/27 02:41:49;;;;;;;11.23;7.77;;;;;;;9.06;61.89;101932.44;5079621;28;20207;-69
2022/04/27 02:44:15;;;;;;;11.13;8.70;;;;;;;8.97;61.50;101927.81;5079388;28;20252;-69
2022/04/27 02:46:40;;;;;;;7.87;7.00;;;;;;;8.76;62.13;101925.31;5079465;28;20534;-69
2022/04/27 02:51:49;;;;;;;9.87;7.43;;;;;;;9.08;61.39;101931.69;5079034;28;20230;-71
2022/04/27 02:54:15;;;;;;;11.57;7.60;;;;;;;9.05;61.55;101931.56;5079214;28;20737;-69
2022/04/27 02:56:42;;;;;;;15.70;8.13;;;;;;;9.17;61.31;101935.44;5078398;28;20176;-69
2022/04/27 02:59:07;;;;;;;8.87;7.83;;;;;;;9.23;60.76;101935.66;5078173;28;20439;-69
2022/04/27 03:01:33;;;;;;;13.90;7.40;;;;;;;9.02;61.24;101930.56;5079484;28;20504;-67
2022/04/27 03:03:58;;;;;;;10.80;6.83;;;;;;;9.00;61.54;101934.81;5078985;28;20472;-68
2022/04/27 03:06:23;;;;;;;7.83;6.90;;;;;;;8.63;62.65;101936.97;5078992;28;20222;-68
2022/04/27 03:08:49;;;;;;;13.10;7.17;;;;;;;8.79;62.83;101937.56;5079536;28;20191;-69
2022/04/27 03:11:14;;;;;;;10.10;6.87;;;;;;;8.80;62.64;101932.41;5078821;28;20173;-68
2022/04/27 03:13:39;;;;;;;10.93;7.00;;;;;;;8.88;62.23;101937.91;5078948;28;20177;-70
2022/04/27 03:16:05;;;;;;;10.13;7.33;;;;;;;9.11;61.80;101938.69;5078871;28;20236;-69
2022/04/27 03:18:31;;;;;;;9.17;7.30;;;;;;;8.95;62.19;101937.28;5078707;28;20184;-69
2022/04/27 03:20:56;;;;;;;8.93;6.73;;;;;;;8.85;62.51;101940.34;5078846;28;20239;-69
2022/04/27 03:23:21;;;;;;;8.30;7.23;;;;;;;8.76;62.56;101939.19;5078821;28;20828;-68
2022/04/27 03:25:47;;;;;;;7.93;6.63;;;;;;;8.84;62.36;101938.63;5078477;28;20176;-69
2022/04/27 03:28:12;;;;;;;15.47;7.43;;;;;;;8.63;63.32;101934.38;5078536;28;20553;-68
2022/04/27 03:30:37;;;;;;;10.70;7.30;;;;;;;8.52;62.97;101944.38;5079009;28;20164;-68
2022/04/27 03:33:03;;;;;;;8.03;7.23;;;;;;;8.66;63.52;101950.09;5078570;28;20173;-68
2022/04/27 03:35:28;;;;;;;7.47;6.73;;;;;;;8.84;62.68;101954.22;5078504;28;20177;-68
2022/04/27 03:37:55;;;;;;;9.17;7.50;;;;;;;8.82;62.40;101964.56;5079327;28;20161;-68
2022/04/27 03:40:21;;;;;;;9.87;6.70;;;;;;;9.03;61.92;101964.44;5078498;28;20494;-69
2022/04/27 03:42:47;;;;;;;12.80;7.07;;;;;;;9.09;62.04;101962.06;5078233;28;20792;-68
2022/04/27 03:45:13;;;;;;;13.00;7.93;;;;;;;8.85;61.95;101953.34;5078913;28;20460;-69
2022/04/27 03:47:38;;;;;;;9.17;7.13;;;;;;;9.03;61.90;101963.56;5078389;28;20173;-69
2022/04/27 03:50:04;;;;;;;8.47;7.50;;;;;;;9.36;61.07;101973.38;5078280;28;20223;-69
2022/04/27 03:52:30;;;;;;;8.10;7.30;;;;;;;9.29;61.07;101974.88;5078812;28;20196;-69
2022/04/27 03:55:00;;;;;;;10.03;7.33;;;;;;;9.26;61.06;101985.19;5078414;28;20438;-70
2022/04/27 03:57:25;;;;;;;9.70;6.80;;;;;;;9.15;61.18;101983.94;5078294;28;20805;-68
2022/04/27 03:59:51;;;;;;;12.37;7.47;;;;;;;8.93;61.44;101980.56;5078707;28;20407;-69
2022/04/27 04:02:16;;;;;;;12.30;8.03;;;;;;;8.93;61.67;101984.03;5078043;28;20212;-70
2022/04/27 04:04:41;;;;;;;9.20;7.70;;;;;;;9.30;61.12;101980.97;5078076;28;20268;-68
2022/04/27 04:07:07;;;;;;;11.30;8.00;;;;;;;9.00;61.25;101995.56;5078616;28;20207;-69
2022/04/27 04:09:32;;;;;;;8.83;7.93;;;;;;;9.08;61.12;101991.50;5078248;28;20556;-69
2022/04/27 04:11:57;;;;;;;9.70;8.13;;;;;;;9.12;61.69;101996.81;5077849;28;20176;-69
2022/04/27 04:14:23;;;;;;;8.53;7.67;;;;;;;9.16;61.51;102001.28;5078368;28;20169;-69
2022/04/27 04:16:48;;;;;;;9.77;7.80;;;;;;;8.92;62.49;101994.38;5077865;28;20221;-68
2022/04/27 04:19:13;;;;;;;10.63;8.30;;;;;;;9.26;61.82;101993.00;5078109;28;20184;-69
2022/04/27 04:21:38;;;;;;;14.50;8.50;;;;;;;9.02;61.56;101998.19;5078514;28;20511;-68
2022/04/27 04:24:05;;;;;;;8.50;7.00;;;;;;;8.95;61.64;102002.28;5078615;28;20569;-70
2022/04/27 04:29:14;;;;;;;15.07;7.60;;;;;;;9.22;61.35;102007.59;5078062;28;20862;-68
2022/04/27 04:31:39;;;;;;;18.73;8.60;;;;;;;9.08;61.41;102011.44;5077873;28;20423;-68
2022/04/27 04:34:04;;;;;;;103.77;16.43;;;;;;;9.10;61.93;102008.03;5077873;28;20197;-67
2022/04/27 04:36:30;;;;;;;19.90;9.13;;;;;;;9.08;61.58;102022.72;5077965;28;20423;-69
2022/04/27 04:38:55;;;;;;;18.30;8.23;;;;;;;9.37;60.99;102007.25;5081407;28;20173;-68
2022/04/27 04:41:21;;;;;;;9.60;8.03;;;;;;;9.43;61.21;102019.59;5081760;28;20271;-67
2022/04/27 04:43:47;;;;;;;10.77;6.90;;;;;;;9.59;60.39;102011.50;5081397;28;20169;-67
2022/04/27 04:46:12;;;;;;;12.17;7.33;;;;;;;9.39;60.37;102010.81;5081572;28;20208;-68
2022/04/27 04:48:37;;;;;;;12.60;7.60;;;;;;;9.63;60.49;102025.50;5082163;28;20399;-68
2022/04/27 04:51:03;;;;;;;8.33;7.07;;;;;;;9.77;59.61;102024.25;5081574;28;20432;-70
2022/04/27 04:53:28;;;;;;;11.20;7.57;;;;;;;9.72;59.02;102020.59;5081380;28;20172;-68
2022/04/27 04:55:54;;;;;;;10.57;7.87;;;;;;;9.50;59.91;102028.50;5081852;28;20169;-70
2022/04/27 04:58:19;;;;;;;9.27;7.60;;;;;;;9.64;60.11;102022.06;5081361;28;20211;-69
2022/04/27 05:00:45;;;;;;;12.97;7.00;;;;;;;9.50;60.27;102019.00;5080211;28;20295;-70
2022/04/27 05:03:11;;;;;;;12.53;7.67;;;;;;;9.59;60.18;102026.22;5081604;28;20179;-70
2022/04/27 05:05:40;;;;;;;9.20;8.10;;;;;;;10.28;57.91;102025.00;5081259;28;20744;-70
2022/04/27 05:08:06;;;;;;;9.53;7.27;;;;;;;10.20;58.67;102029.09;5081114;28;20640;-70
2022/04/27 05:10:31;;;;;;;12.90;7.50;;;;;;;10.19;57.73;102032.53;5081525;28;20854;-70
2022/04/27 05:12:57;;;;;;;9.67;8.67;;;;;;;10.31;57.67;102037.25;5080922;28;20419;-72
2022/04/27 05:15:22;;;;;;;13.80;7.90;;;;;;;10.86;56.20;102043.31;5079908;28;20221;-70
2022/04/27 05:17:47;;;;;;;12.23;7.67;;;;;;;10.78;56.12;102043.97;5080139;28;20266;-71
2022/04/27 05:20:13;;;;;;;10.43;7.80;;;;;;;10.98;55.91;102048.00;5079486;28;20448;-71
2022/04/27 05:22:38;;;;;;;25.27;7.77;;;;;;;11.29;54.75;102048.00;5080420;28;20183;-69
2022/04/27 05:25:07;;;;;;;12.97;7.40;;;;;;;11.11;55.26;102050.13;5080755;28;20177;-72
2022/04/27 05:27:32;;;;;;;12.90;7.70;;;;;;;10.81;55.69;102044.88;5080380;28;20213;-72
2022/04/27 05:32:45;;;;;;;6.90;6.23;;;;;;;12.37;52.05;102044.69;5080167;28;20251;-71
2022/04/27 05:35:11;;;;;;;12.50;7.07;;;;;;;13.88;47.17;102032.84;5079773;28;20446;-74
2022/04/27 05:37:37;;;;;;;9.63;6.43;;;;;;;15.49;43.99;102031.53;5080336;28;20494;-73
2022/04/27 05:40:04;;;;;;;10.83;6.77;;;;;;;16.32;41.59;102028.75;5080454;28;20211;-72
2022/04/27 05:42:30;;;;;;;10.43;6.70;;;;;;;15.78;41.99;102025.66;5080445;28;20906;-72
2022/04/27 05:44:55;;;;;;;16.23;8.93;;;;;;;15.68;42.49;102033.47;5074820;28;20856;-72
2022/04/27 05:47:23;;;;;;;7.03;6.33;;;;;;;16.14;40.92;102039.13;5072428;28;20430;-72
2022/04/27 05:49:51;;;;;;;11.50;5.93;;;;;;;17.80;38.33;102028.38;5075986;28;20168;-71
2022/04/27 05:52:17;;;;;;;10.67;5.93;;;;;;;15.83;41.38;102052.06;5078032;28;20810;-72
2022/04/27 05:54:42;;;;;;;8.10;5.73;;;;;;;14.59;44.23;102055.81;5079721;28;20466;-72
2022/04/27 05:57:07;;;;;;;7.80;6.20;;;;;;;13.68;46.69;102066.56;5080480;28;20428;-73
2022/04/27 05:59:33;;;;;;;11.03;6.50;;;;;;;13.86;46.72;102068.66;5080184;28;20222;-72
2022/04/27 06:01:59;;;;;;;7.77;7.00;;;;;;;13.35;48.00;102071.19;5079628;28;20208;-72
2022/04/27 06:04:26;;;;;;;10.50;6.80;;;;;;;12.69;49.12;102078.56;5080234;28;20169;-72
2022/04/27 06:06:52;;;;;;;12.13;6.90;;;;;;;12.24;50.14;102077.47;5079957;28;20169;-72
2022/04/27 06:09:17;;;;;;;7.97;6.83;;;;;;;12.55;50.10;102087.81;5080008;28;20415;-73
2022/04/27 06:11:42;;;;;;;14.30;7.17;;;;;;;12.62;50.43;102087.09;5066932;28;20227;-72
2022/04/27 06:14:07;;;;;;;14.87;7.03;;;;;;;12.02;51.07;102096.13;5059796;28;20174;-72
2022/04/27 06:16:34;;;;;;;11.53;7.43;;;;;;;11.74;52.18;102100.59;5071175;28;20225;-72
2022/04/27 06:19:00;;;;;;;9.17;7.73;;;;;;;11.74;52.16;102103.19;5078539;28;20176;-73
2022/04/27 06:21:30;;;;;;;13.83;7.50;;;;;;;11.60;52.17;102108.06;5078451;28;20474;-73
2022/04/27 06:23:56;;;;;;;8.70;7.10;;;;;;;11.47;53.05;102112.03;5079614;28;20177;-72
2022/04/27 06:26:22;;;;;;;11.73;7.20;;;;;;;11.63;52.45;102116.84;5080060;28;20469;-75
2022/04/27 06:28:47;;;;;;;23.63;8.93;;;;;;;11.29;53.85;102118.50;5077873;28;20227;-73
2022/04/27 06:31:12;;;;;;;7.93;6.27;;;;;;;11.49;53.28;102110.38;5061531;28;20444;-73
2022/04/27 06:33:38;;;;;;;15.00;8.20;;;;;;;12.27;51.16;102110.66;5060435;28;20219;-75
2022/04/27 06:36:03;;;;;;;12.00;6.73;;;;;;;12.42;50.81;102115.38;5059545;28;20527;-74
2022/04/27 06:38:29;;;;;;;10.93;5.93;;;;;;;12.57;49.99;102107.03;5059397;28;20452;-76
2022/04/27 06:40:54;;;;;;;10.70;6.63;;;;;;;12.45;50.44;102118.09;5073659;28;20462;-74
2022/04/27 06:43:19;;;;;;;6.77;5.80;;;;;;;12.96;49.46;102121.88;5079073;28;20204;-73
2022/04/27 06:45:44;;;;;;;15.77;7.33;;;;;;;12.82;49.67;102123.31;5073277;28;20189;-73
2022/04/27 06:48:11;;;;;;;15.83;7.87;;;;;;;13.08;48.88;102122.16;5079498;28;20199;-72
2022/04/27 06:50:36;;;;;;;19.07;8.17;;;;;;;13.68;47.57;102121.59;5079335;28;20179;-72
2022/04/27 06:53:02;;;;;;;9.60;6.50;;;;;;;13.74;47.31;102121.75;5072347;28;20439;-73
2022/04/27 06:55:27;;;;;;;8.23;7.47;;;;;;;13.70;47.40;102118.16;5060457;28;20438;-72
2022/04/27 06:57:53;;;;;;;6.23;5.17;;;;;;;13.74;47.46;102124.34;5065533;28;20173;-73
2022/04/27 07:00:19;;;;;;;13.83;6.40;;;;;;;13.88;47.06;102120.25;5058480;28;20525;-75
2022/04/27 07:02:44;;;;;;;6.47;5.87;;;;;;;13.76;47.59;102120.00;5059044;28;20204;-73
2022/04/27 07:05:16;;;;;;;14.50;7.83;;;;;;;13.84;46.70;102121.03;5062492;28;20180;-75
2022/04/27 07:07:41;;;;;;;7.20;6.47;;;;;;;13.00;48.27;102131.53;5069930;28;20205;-75
2022/04/27 07:10:07;;;;;;;7.37;6.00;;;;;;;12.57;49.60;102135.81;5071617;28;20506;-74
2022/04/27 07:12:32;;;;;;;7.00;6.23;;;;;;;12.69;49.54;102138.72;5066544;28;20187;-73
2022/04/27 07:14:57;;;;;;;13.77;7.30;;;;;;;12.63;49.77;102138.56;5074418;28;20242;-74
2022/04/27 07:17:23;;;;;;;7.60;6.23;;;;;;;12.78;49.41;102144.16;5068188;28;20217;-74
2022/04/27 07:19:48;;;;;;;9.30;5.80;;;;;;;13.75;47.66;102142.72;5075014;28;20185;-74
2022/04/27 07:22:14;;;;;;;7.80;6.00;;;;;;;13.59;47.45;102145.91;5077960;28;20211;-73
2022/04/27 07:24:39;;;;;;;7.83;5.80;;;;;;;13.97;46.73;102140.50;5069445;28;20459;-75
2022/04/27 07:27:05;;;;;;;10.30;6.30;;;;;;;14.03;46.10;102148.50;5072829;28;20496;-74
2022/04/27 07:29:30;;;;;;;11.37;6.10;;;;;;;14.41;45.57;102148.25;5070838;28;20212;-73
2022/04/27 07:31:56;;;;;;;8.90;6.43;;;;;;;14.58;44.66;102145.03;5073633;28;20195;-74
2022/04/27 07:34:21;;;;;;;10.63;8.30;;;;;;;15.06;44.34;102143.09;5077188;28;20184;-73
2022/04/27 07:36:47;;;;;;;7.97;5.93;;;;;;;15.67;42.57;102143.00;5076971;28;20177;-73
2022/04/27 07:39:13;;;;;;;8.10;6.03;;;;;;;15.58;42.45;102146.41;5071121;28;20195;-75
2022/04/27 07:41:38;;;;;;;8.67;5.70;;;;;;;16.53;40.60;102140.28;5058607;28;20515;-74
2022/04/27 07:44:06;;;;;;;7.10;5.70;;;;;;;15.88;41.96;102154.66;5059711;28;20180;-75
2022/04/27 07:46:31;;;;;;;8.80;5.37;;;;;;;15.72;41.55;102154.47;5059477;28;20279;-75
2022/04/27 07:48:56;;;;;;;8.83;5.17;;;;;;;15.11;43.19;102155.47;5057543;28;20497;-73
2022/04/27 07:51:22;;;;;;;17.23;12.43;;;;;;;15.08;43.14;102167.66;5058296;28;20222;-75
2022/04/27 07:53:47;;;;;;;9.43;5.40;;;;;;;14.64;43.55;102164.41;5058066;28;20181;-75
2022/04/27 07:56:13;;;;;;;7.53;5.70;;;;;;;14.91;42.85;102162.16;5058055;28;20174;-75
2022/04/27 07:58:38;;;;;;;21.27;5.70;;;;;;;16.29;40.47;102162.03;5058425;28;20180;-75
2022/04/27 08:01:05;;;;;;;9.00;5.27;;;;;;;15.96;41.02;102169.63;5057998;28;20561;-74
2022/04/27 08:03:30;;;;;;;7.27;5.07;;;;;;;15.87;41.64;102174.81;5058139;28;20207;-74
2022/04/27 08:05:56;;;;;;;6.53;5.40;;;;;;;15.81;40.86;102175.59;5058381;28;20812;-76
2022/04/27 08:08:21;;;;;;;7.30;5.50;;;;;;;16.37;40.38;102170.88;5057872;28;20605;-76
2022/04/27 08:10:46;;;;;;;12.90;6.10;;;;;;;15.80;41.84;102171.22;5057708;28;20176;-74
2022/04/27 08:13:12;;;;;;;11.33;5.80;;;;;;;16.36;40.63;102174.41;5060156;28;20199;-74
2022/04/27 08:15:37;;;;;;;7.70;5.53;;;;;;;16.17;40.59;102181.25;5061908;28;20174;-75
2022/04/27 08:18:06;;;;;;;10.67;5.70;;;;;;;16.46;40.18;102180.63;5061785;28;20351;-75
2022/04/27 08:23:20;;;;;;;6.73;5.53;;;;;;;16.75;39.34;102183.47;5061852;28;20831;-76
2022/04/27 08:25:46;;;;;;;8.30;5.87;;;;;;;17.67;37.61;102180.47;5061199;28;20534;-75
2022/04/27 08:28:12;;;;;;;14.20;8.77;;;;;;;18.33;36.56;102173.56;5061875;28;20404;-75
2022/04/27 08:30:39;;;;;;;9.57;5.07;;;;;;;16.77;38.51;102180.84;5061000;28;20473;-75
2022/04/27 08:33:05;;;;;;;12.43;6.00;;;;;;;17.67;36.69;102182.19;5062187;28;20230;-74
2022/04/27 08:35:31;;;;;;;9.30;7.10;;;;;;;17.45;37.47;102182.13;5061650;28;20412;-75
2022/04/27 08:37:58;;;;;;;6.70;6.00;;;;;;;17.73;36.86;102189.28;5061533;28;20395;-75
2022/04/27 08:40:24;;;;;;;11.90;5.83;;;;;;;19.33;34.07;102180.47;5062136;28;20669;-75
2022/04/27 08:42:50;;;;;;;6.07;5.47;;;;;;;19.10;33.89;102173.50;5060604;28;20426;-74
2022/04/27 08:45:16;;;;;;;6.90;5.30;;;;;;;20.51;33.10;102178.88;5061550;28;20416;-75
2022/04/27 08:47:43;;;;;;;6.60;5.30;;;;;;;21.00;31.60;102179.34;5061896;28;20438;-75
2022/04/27 08:50:15;;;;;;;12.53;5.57;;;;;;;20.49;31.76;102180.66;5061555;28;20687;-75
2022/04/27 08:52:42;;;;;;;6.83;4.90;;;;;;;22.04;29.46;102169.13;5060474;28;20452;-74
2022/04/27 08:55:08;;;;;;;6.20;5.17;;;;;;;21.25;30.03;102176.38;5060766;28;20408;-73
2022/04/27 08:57:34;;;;;;;4.93;4.40;;;;;;;20.58;31.63;102176.16;5061129;28;20414;-74
2022/04/27 08:59:59;;;;;;;6.00;4.97;;;;;;;21.39;30.52;102181.50;5061104;28;20813;-75
2022/04/27 09:02:26;;;;;;;6.37;4.70;;;;;;;21.23;30.47;102170.22;5061092;28;20202;-75
2022/04/27 09:05:11;;;;;;;6.07;4.90;;;;;;;22.56;28.06;102168.34;5061027;28;20170;-74
2022/04/27 09:07:45;;;;;;;6.07;4.80;;;;;;;21.81;29.33;102177.44;5061072;28;20420;-74
2022/04/27 09:10:11;;;;;;;5.10;4.60;;;;;;;22.04;28.28;102163.81;5060973;28;20416;-74
2022/04/27 09:12:50;;;;;;;5.43;4.93;;;;;;;21.28;29.92;102179.88;5060928;28;20419;-76
2022/04/27 09:15:17;;;;;;;5.10;4.67;;;;;;;22.18;28.74;102174.22;5060907;28;20412;-73
2022/04/27 09:23:38;;;;;;;6.00;5.43;;;;;;;21.83;29.45;102178.28;5060133;28;20462;-74
2022/04/27 09:26:19;;;;;;;6.87;5.90;;;;;;;20.10;31.75;102169.50;5060615;28;20408;-74
2022/04/27 09:28:49;;;;;;;6.90;6.20;;;;;;;21.82;29.37;102173.00;5060702;28;20427;-75
2022/04/27 09:31:30;;;;;;;6.93;6.13;;;;;;;21.79;30.11;102170.41;5060435;28;20412;-75
2022/04/27 09:34:27;;;;;;;5.80;5.20;;;;;;;23.13;27.77;102169.94;5060499;28;20430;-74
2022/04/27 09:37:00;;;;;;;6.10;5.50;;;;;;;22.48;28.23;102166.66;5060222;28;20539;-75
2022/04/27 09:39:26;;;;;;;9.70;5.63;;;;;;;23.55;26.80;102159.28;5060350;28;20411;-74
2022/04/27 09:41:51;;;;;;;5.93;5.33;;;;;;;22.47;28.83;102161.38;5059236;28;20467;-74
2022/04/27 09:44:28;;;;;;;7.10;6.40;;;;;;;22.46;28.34;102167.59;5060152;28;20412;-74
2022/04/27 09:46:53;;;;;;;6.53;5.60;;;;;;;23.50;27.56;102156.75;5060018;28;20169;-75
2022/04/27 09:49:18;;;;;;;9.03;5.00;;;;;;;22.63;28.75;102169.97;5060016;28;20431;-74
2022/04/27 09:51:48;;;;;;;5.23;4.73;;;;;;;21.80;30.11;102173.03;5060328;28;20592;-74
2022/04/27 09:54:23;;;;;;;20.20;6.80;;;;;;;22.87;27.92;102160.66;5060032;28;20173;-75
2022/04/27 09:56:51;;;;;;;7.80;4.90;;;;;;;22.82;28.13;102162.53;5059905;28;20431;-74
2022/04/27 09:59:18;;;;;;;6.17;5.57;;;;;;;23.42;27.46;102168.44;5059947;28;20412;-76
2022/04/27 10:01:45;;;;;;;7.87;5.47;;;;;;;23.02;27.71;102162.13;5058991;28;20790;-74
2022/04/27 10:04:10;;;;;;;6.10;5.27;;;;;;;22.78;27.73;102175.00;5059577;28;20407;-75
2022/04/27 10:06:36;;;;;;;6.63;5.00;;;;;;;22.07;28.79;102168.22;5059821;28;20416;-74
2022/04/27 10:09:04;;;;;;;5.97;5.47;;;;;;;21.87;28.65;102173.81;5059649;28;20231;-75
2022/04/27 10:11:31;;;;;;;6.17;5.60;;;;;;;22.88;28.18;102160.63;5060063;28;20249;-74
2022/04/27 10:13:56;;;;;;;9.37;5.80;;;;;;;22.44;27.82;102162.31;5059655;28;20464;-74
2022/04/27 10:16:23;;;;;;;5.73;5.13;;;;;;;23.38;26.70;102160.53;5059740;28;20416;-74
2022/04/27 10:18:49;;;;;;;6.20;5.60;;;;;;;22.38;27.30;102165.09;5060194;28;20247;-74
2022/04/27 10:22:01;;;;;;;5.93;5.33;;;;;;;23.19;25.22;102156.50;5059269;28;20456;-74
2022/04/27 10:24:42;;;;;;;7.60;5.30;;;;;;;23.28;25.71;102163.44;5059251;28;20805;-74
2022/04/27 10:27:26;;;;;;;5.40;4.90;;;;;;;20.99;29.37;102177.56;5059657;28;20416;-76
2022/04/27 10:30:04;;;;;;;5.80;5.20;;;;;;;22.05;26.27;102170.00;5059538;28;20573;-74
2022/04/27 10:32:36;;;;;;;5.97;5.47;;;;;;;23.15;25.90;102166.34;5059276;28;20434;-74
2022/04/27 10:35:19;;;;;;;6.90;5.23;;;;;;;21.76;27.00;102170.44;5058342;28;20419;-74
2022/04/27 10:37:54;;;;;;;7.40;5.40;;;;;;;22.04;26.19;102173.53;5059245;28;20412;-75
2022/04/27 10:40:29;;;;;;;5.80;5.30;;;;;;;21.28;26.49;102163.94;5058945;28;20411;-74
2022/04/27 10:43:23;;;;;;;6.40;5.80;;;;;;;22.03;26.31;102159.41;5058925;28;20423;-74
2022/04/27 10:45:48;;;;;;;6.07;5.57;;;;;;;21.96;26.76;102163.06;5048476;28;20427;-74
2022/04/27 10:48:15;;;;;;;5.77;5.10;;;;;;;21.50;27.58;102175.19;5058218;28;20805;-75
2022/04/27 10:50:53;;;;;;;6.83;5.40;;;;;;;21.61;27.28;102177.72;5058979;28;20195;-75
2022/04/27 10:53:25;;;;;;;6.20;5.70;;;;;;;20.87;28.85;102181.22;5059078;28;20416;-74
2022/04/27 10:55:54;;;;;;;6.53;5.80;;;;;;;21.32;27.56;102178.06;5059035;28;20416;-74
2022/04/27 10:58:22;;;;;;;7.27;5.77;;;;;;;21.78;27.39;102182.78;5058790;28;20424;-75
2022/04/27 11:01:18;;;;;;;6.37;5.77;;;;;;;21.01;28.49;102187.25;5058745;28;20495;-74
2022/04/27 11:03:43;;;;;;;11.43;5.77;;;;;;;20.19;29.22;102184.44;5058169;28;20424;-76
2022/04/27 11:06:10;;;;;;;5.80;5.30;;;;;;;21.81;28.01;102192.47;5059491;28;20503;-74
2022/04/27 11:08:36;;;;;;;7.20;5.60;;;;;;;22.32;27.13;102181.94;5058977;28;20211;-74
2022/04/27 11:11:08;;;;;;;6.87;6.33;;;;;;;21.94;27.58;102180.78;5058606;28;20486;-75
2022/04/27 11:13:35;;;;;;;5.70;5.10;;;;;;;20.34;29.25;102186.97;5059226;28;20543;-76
2022/04/27 11:16:07;;;;;;;6.27;5.50;;;;;;;21.23;27.93;102180.81;5058676;28;20535;-75
2022/04/27 11:18:52;;;;;;;9.50;5.13;;;;;;;20.94;28.21;102182.03;5058672;28;20465;-74
2022/04/27 11:21:18;;;;;;;5.47;4.97;;;;;;;21.39;28.41;102182.38;5058436;28;20727;-75
2022/04/27 11:23:44;;;;;;;5.83;5.33;;;;;;;20.80;28.13;102185.72;5058731;28;20503;-74
2022/04/27 11:26:10;;;;;;;5.20;4.80;;;;;;;21.77;26.63;102189.00;5057938;28;20448;-74
2022/04/27 11:28:39;;;;;;;6.40;5.40;;;;;;;21.60;27.70;102185.72;5058439;28;20820;-74
2022/04/27 11:31:04;;;;;;;8.50;6.37;;;;;;;21.46;28.01;102194.69;5058739;28;20161;-74
2022/04/27 11:33:31;;;;;;;6.50;5.30;;;;;;;20.15;28.81;102193.31;5058445;28;20438;-75
2022/04/27 11:35:56;;;;;;;6.13;5.30;;;;;;;20.15;28.19;102188.88;5058168;28;20252;-74
2022/04/27 11:38:32;;;;;;;5.77;5.17;;;;;;;21.98;26.27;102186.94;5058777;28;20447;-74
2022/04/27 11:40:58;;;;;;;5.90;5.30;;;;;;;20.29;28.85;102190.53;5057426;28;20537;-75
2022/04/27 11:43:31;;;;;;;7.17;5.90;;;;;;;21.24;27.91;102193.19;5057915;28;20451;-74